Flugplatz Dankern

DE-0195 · 下萨克森, 德国

罗盘
风向 的 风向 070° Flugplatz Dankern 10/28
风: 6 kt, 2 beaufort

5 kt

3 kt
改变
0 1.000 2.000 3.000 4.000 5.000
N/A
METAR ETWM 031520Z AUTO 07006KT //// // ////// M00/M04 Q1021 ///

METAR Flugplatz Dankern - DE-0195

Flugplatz Dankern是,德国中的小机场。 该机场有一条跑道: 10/28. 该领域的国际民航组织标志是DE-0195.

这份报告是针对2022年12月3日 16:20, 当地时间在Meppen Air Base进行的。

机场观察

风向为070°,速度为6 kt。

温度为0 °C,阵风为-6 °C。 露点为-4 °C,相对湿度为75%。 海平面上的气压为1021 hPa (QNH)。

白天

今天,太阳从08:23升起,在16:18降落。 这适用于Flugplatz Dankern,世界夏令时可能有所不同。 当地时间与世界标准时间之间的时差为+1 小时。 当前,没有夏令时有效。

公司介绍

我们没有关于这个机场的公司信息。

体会

到Vliegles.nl去找飞行课程,跳伞和其他飞行体验。 浏览页面,了解Flugplatz Dankern附近所有可用的活动。 你也可以使用搜索功能来寻找你所在地附近的特定飞行课程、跳伞或其他飞行体验。

跑道

Id 标题 侧风 逆风 侧风 %
10/28 100°-280° 3 kt 5 kt 50 %

逆风成分最大的方向会被突出显示,并用于横风计算。 这并不一定意味着这个方向在使用。

乌云

0 ft

温度 & 天气

温度 0 °C
露点 -4 °C
相对湿度 75%
风寒 -6 °C
Kp-index 2 (0-9)

白天

日出
08:22 (15:15)
中午
12:20
日落
16:18

小工具

你想在你的网站上有一个关于Flugplatz Dankern的当前航空天气(METAR)的小部件吗?

显示HTML代码

我们和第三方通过cookies跟踪您在我们网站上的互联网行为。如果你继续,我们认为你同意我们的饼干政策